Airfield :
LOGIN :

Register | Disclaimer

   EN    FR    IT 

 










Legend :    VFR   Marginal VFR   IFR   Intensive IFR   Very Intensive IFR
Visi :
Ceiling :
>= 8 km
>= 3000ft
5 to 8 km
1000 to 3000 ft
1500m to 5 km
500 to 1000 ft
800 to 1500m
200 to 500 ft
< 800m
< 200 ft
Symbols :   Thunderstorms  Fog  Heavy snow  Heavy precipitations  Wind > 20 kt
SIGMETs :     Misc.  Thunderstorms  Icing  Turbulence  Mountain Waves  Volcanic Ashes






- Airport Elevation : 1674 ft
- IATA code : BRN


LSZB - Bern Belp

CURRENT METAR :
  • 130950Z 24009KT 210V270 9999 FEW032 SCT050 BKN070 05/01 Q0986 R14/250194 NOSIG

EXPIRED METARs :
  • 130920Z 25010KT 180V290 9999 FEW034 SCT038 BKN070 05/01 Q0986 R14/250194 NOSIG
  • 130850Z 25010KT 210V280 9999 -RA SCT021 BKN030 05/02 Q0985 R14/250194 NOSIG
  • 130820Z 21009KT 130V280 2000 RA BR BKN015 OVC022 04/02 Q0984 R14/250194 NOSIG
  • 130750Z VRB03KT 2000 -SN SCT002 BKN021 OVC029 00/00 Q0984 REFZDZ R14/551094 NOSIG
  • 130720Z 33004KT 310V030 3000 -SN BKN005 OVC008 00/00 Q0983 R14/551094 NOSIG

TAF TAF LSZB
Valid from the 13 at 09:00 until the 13 at 18:00 UTC


130825Z 1309/1318 22010G25KT 6000 BKN015
TEMPO 1309/1318 3000 SHSNRA BKN010
ATIS : +41 22 417 40 76



MET'MAP, your aeronautical weather chart ! - Copyright ORBIFLY December 2007 - Disclaimer

ORBIFLY MET'MAP TEAM :

Programming & Development : Alexandra Zaïnal
Concept & original design : Baudouin d'Aumeries
Assistance for programming : Marc-Olivier Méhu
Technical & hardware support : Manuel Goepfert

Contact : metmap@orbifly.com




SOURCES & CREDITS :

   NOAA